createdAt,value
2023-07-25T00:00:51.502Z,20.94
2023-07-25T00:01:51.577Z,20.87
2023-07-25T00:02:51.524Z,20.90
2023-07-25T00:03:51.499Z,20.91
2023-07-25T00:04:51.479Z,20.88
2023-07-25T00:05:51.475Z,20.90
2023-07-25T00:06:51.474Z,20.83
2023-07-25T00:07:51.461Z,20.85
2023-07-25T00:09:51.463Z,20.87
2023-07-25T00:10:51.441Z,20.79
2023-07-25T00:11:51.439Z,20.78
2023-07-25T00:12:51.426Z,20.76
2023-07-25T00:13:51.418Z,20.75
2023-07-25T00:14:51.420Z,20.66
2023-07-25T00:15:51.416Z,20.66
2023-07-25T00:16:51.530Z,20.66
2023-07-25T00:17:51.418Z,20.66
2023-07-25T00:18:51.393Z,20.51
2023-07-25T00:19:51.380Z,20.53
2023-07-25T00:20:51.377Z,20.51
2023-07-25T00:21:51.393Z,20.53
2023-07-25T00:22:51.371Z,20.56
2023-07-25T00:23:51.366Z,20.56
2023-07-25T00:24:51.382Z,20.51
2023-07-25T00:25:51.387Z,20.50
2023-07-25T00:26:51.347Z,20.46
2023-07-25T00:27:51.336Z,20.50
2023-07-25T00:28:51.331Z,20.48
2023-07-25T00:29:51.332Z,20.44
2023-07-25T00:30:51.335Z,20.50
2023-07-25T00:31:51.443Z,20.51
2023-07-25T00:32:51.328Z,20.53
2023-07-25T00:33:51.294Z,20.50
2023-07-25T00:34:51.321Z,20.56
2023-07-25T00:35:51.284Z,20.50
2023-07-25T00:36:51.276Z,20.48
2023-07-25T00:37:51.271Z,20.46
2023-07-25T00:38:51.270Z,20.42
2023-07-25T00:39:51.257Z,20.41
2023-07-25T00:40:51.257Z,20.46
2023-07-25T00:41:51.269Z,20.42
2023-07-25T00:42:51.242Z,20.31
2023-07-25T00:43:51.232Z,20.31
2023-07-25T00:44:51.232Z,20.33
2023-07-25T00:45:51.256Z,20.25
2023-07-25T00:46:51.229Z,20.26
2023-07-25T00:47:51.251Z,20.34
2023-07-25T00:48:51.205Z,20.22
2023-07-25T00:49:51.215Z,20.15
2023-07-25T00:50:51.195Z,20.15
2023-07-25T00:51:51.180Z,20.13
2023-07-25T00:52:51.193Z,20.08
2023-07-25T00:53:51.167Z,20.10
2023-07-25T00:54:51.164Z,20.10
2023-07-25T00:55:51.154Z,20.17
2023-07-25T00:56:51.149Z,20.12
2023-07-25T00:57:51.162Z,20.16
2023-07-25T00:58:51.139Z,20.17
2023-07-25T00:59:51.134Z,20.16
2023-07-25T01:00:51.124Z,20.15
2023-07-25T01:01:51.153Z,20.15
2023-07-25T01:02:51.266Z,20.12
2023-07-25T01:03:51.190Z,20.16
2023-07-25T01:04:51.104Z,20.22
2023-07-25T01:06:51.087Z,20.17
2023-07-25T01:07:51.075Z,20.10
2023-07-25T01:08:51.077Z,20.10
2023-07-25T01:09:51.066Z,20.08
2023-07-25T01:10:51.094Z,20.19
2023-07-25T01:11:51.053Z,20.12
2023-07-25T01:12:51.055Z,20.12
2023-07-25T01:13:51.058Z,20.12
2023-07-25T01:14:51.084Z,20.10
2023-07-25T01:15:51.073Z,20.10
2023-07-25T01:16:51.019Z,20.02
2023-07-25T01:17:51.018Z,20.04
2023-07-25T01:18:51.012Z,19.87
2023-07-25T01:19:51.019Z,19.97
2023-07-25T01:20:50.990Z,19.90
2023-07-25T01:21:50.989Z,19.94
2023-07-25T01:22:50.984Z,19.94
2023-07-25T01:23:51.009Z,19.90
2023-07-25T01:24:51.019Z,19.87
2023-07-25T01:25:50.962Z,19.90
2023-07-25T01:26:50.957Z,19.94
2023-07-25T01:27:50.949Z,19.94
2023-07-25T01:28:50.941Z,19.92
2023-07-25T01:29:50.965Z,19.90
2023-07-25T01:30:50.934Z,19.95
2023-07-25T01:31:50.928Z,19.90
2023-07-25T01:32:50.984Z,19.92
2023-07-25T01:33:50.940Z,19.87
2023-07-25T01:34:50.898Z,19.90
2023-07-25T01:35:50.896Z,19.92
2023-07-25T01:36:50.887Z,19.82
2023-07-25T01:37:50.889Z,19.89
2023-07-25T01:38:50.879Z,19.89
2023-07-25T01:39:50.871Z,19.97
2023-07-25T01:40:50.863Z,19.87
2023-07-25T01:41:50.861Z,19.95
2023-07-25T01:42:50.853Z,19.94
2023-07-25T01:43:50.843Z,19.90
2023-07-25T01:44:50.836Z,19.90
2023-07-25T01:45:50.875Z,20.04
2023-07-25T01:46:50.827Z,20.02
2023-07-25T01:47:50.905Z,19.94
2023-07-25T01:48:50.812Z,19.92
2023-07-25T01:49:50.801Z,20.04
2023-07-25T01:50:50.803Z,19.97
2023-07-25T01:51:50.808Z,20.01
2023-07-25T01:52:50.791Z,20.01
2023-07-25T01:53:50.779Z,20.05
2023-07-25T01:54:50.771Z,20.08
2023-07-25T01:55:50.765Z,20.02
2023-07-25T01:56:51.234Z,20.05
2023-07-25T01:57:50.752Z,20.05
2023-07-25T01:58:50.749Z,20.02
2023-07-25T01:59:50.745Z,20.02
2023-07-25T02:00:50.774Z,20.02
2023-07-25T02:01:50.758Z,20.04
2023-07-25T02:02:50.802Z,20.05
2023-07-25T02:03:50.712Z,20.08
2023-07-25T02:04:50.712Z,20.07
2023-07-25T02:05:50.701Z,20.12
2023-07-25T02:06:50.699Z,20.22
2023-07-25T02:07:50.686Z,20.15
2023-07-25T02:08:50.687Z,20.17
2023-07-25T02:09:50.678Z,20.17
2023-07-25T02:10:50.672Z,20.19
2023-07-25T02:11:50.662Z,20.15
2023-07-25T02:12:50.658Z,20.15
2023-07-25T02:13:50.651Z,20.15
2023-07-25T02:14:50.644Z,20.13
2023-07-25T02:15:50.641Z,20.20
2023-07-25T02:16:50.649Z,20.16
2023-07-25T02:17:50.688Z,20.19
2023-07-25T02:18:50.619Z,20.22
2023-07-25T02:19:50.609Z,20.17
2023-07-25T02:20:50.606Z,20.13
2023-07-25T02:21:50.601Z,20.17
2023-07-25T02:22:50.594Z,20.10
2023-07-25T02:23:50.584Z,20.22
2023-07-25T02:24:50.621Z,20.13
2023-07-25T02:25:50.576Z,20.08
2023-07-25T02:26:50.568Z,20.20
2023-07-25T02:28:50.552Z,20.07
2023-07-25T02:29:50.551Z,20.15
2023-07-25T02:30:50.566Z,20.15
2023-07-25T02:31:50.535Z,20.10
2023-07-25T02:32:50.612Z,20.08
2023-07-25T02:33:50.587Z,20.05
2023-07-25T02:34:50.518Z,20.13
2023-07-25T02:35:50.510Z,20.12
2023-07-25T02:36:50.504Z,20.19
2023-07-25T02:37:50.497Z,20.15
2023-07-25T02:38:50.489Z,20.22
2023-07-25T02:39:50.483Z,20.17
2023-07-25T02:40:50.491Z,20.19
2023-07-25T02:41:50.480Z,20.15
2023-07-25T02:42:50.481Z,20.15
2023-07-25T02:43:50.472Z,20.15
2023-07-25T02:44:50.460Z,20.19
2023-07-25T02:45:50.450Z,20.13
2023-07-25T02:46:50.477Z,20.19
2023-07-25T02:47:50.479Z,20.19
2023-07-25T02:48:50.428Z,20.12
2023-07-25T02:49:50.438Z,20.19
2023-07-25T02:50:50.413Z,20.08
2023-07-25T02:51:50.413Z,20.12
2023-07-25T02:52:50.455Z,20.08
2023-07-25T02:53:50.396Z,20.20
2023-07-25T02:54:50.413Z,20.08
2023-07-25T02:55:50.385Z,20.10
2023-07-25T02:56:50.377Z,20.10
2023-07-25T02:57:50.387Z,20.08
2023-07-25T02:58:50.377Z,19.98
2023-07-25T02:59:50.362Z,19.95
2023-07-25T03:00:50.422Z,20.10
2023-07-25T03:01:50.381Z,20.16
2023-07-25T03:02:50.353Z,20.10
2023-07-25T03:03:50.334Z,20.10
2023-07-25T03:04:50.324Z,20.04
2023-07-25T03:05:50.340Z,20.08
2023-07-25T03:06:50.311Z,20.04
2023-07-25T03:07:50.324Z,20.01
2023-07-25T03:08:50.308Z,20.05
2023-07-25T03:09:50.295Z,20.05
2023-07-25T03:10:50.290Z,20.05
2023-07-25T03:11:50.280Z,20.08
2023-07-25T03:12:50.273Z,20.05
2023-07-25T03:13:50.269Z,20.07
2023-07-25T03:14:50.262Z,20.07
2023-07-25T03:15:50.263Z,20.04
2023-07-25T03:16:50.266Z,20.05
2023-07-25T03:17:50.267Z,20.04
2023-07-25T03:18:50.237Z,20.07
2023-07-25T03:19:50.238Z,19.87
2023-07-25T03:20:50.242Z,19.92
2023-07-25T03:21:50.234Z,19.90
2023-07-25T03:22:50.209Z,20.02
2023-07-25T03:23:50.200Z,19.90
2023-07-25T03:24:50.267Z,19.89
2023-07-25T03:25:50.189Z,20.08
2023-07-25T03:26:50.184Z,20.08
2023-07-25T03:27:50.175Z,20.07
2023-07-25T03:28:50.166Z,20.08
2023-07-25T03:29:50.164Z,20.10
2023-07-25T03:30:50.258Z,20.08
2023-07-25T03:31:50.154Z,20.13
2023-07-25T03:32:50.149Z,20.19
2023-07-25T03:33:50.133Z,20.16
2023-07-25T03:34:50.136Z,20.15
2023-07-25T03:35:50.122Z,20.19
2023-07-25T03:36:50.123Z,20.19
2023-07-25T03:37:50.130Z,20.15
2023-07-25T03:38:50.107Z,20.12
2023-07-25T03:39:50.098Z,20.12
2023-07-25T03:40:50.091Z,20.15
2023-07-25T03:41:50.095Z,20.15
2023-07-25T03:42:50.071Z,20.15
2023-07-25T03:43:50.076Z,20.15
2023-07-25T03:44:50.061Z,20.07
2023-07-25T03:45:50.133Z,20.08
2023-07-25T03:46:50.049Z,19.98
2023-07-25T03:47:50.066Z,20.04
2023-07-25T03:48:50.039Z,20.12
2023-07-25T03:49:50.030Z,20.07
2023-07-25T03:50:50.023Z,20.07
2023-07-25T03:51:50.022Z,20.04
2023-07-25T03:52:50.008Z,20.04
2023-07-25T03:53:50.027Z,19.98
2023-07-25T03:54:49.996Z,20.05
2023-07-25T03:55:49.992Z,20.00
2023-07-25T03:56:49.983Z,20.02
2023-07-25T03:57:49.986Z,20.08
2023-07-25T03:58:49.973Z,20.04
2023-07-25T03:59:49.987Z,20.08
2023-07-25T04:00:49.956Z,20.13
2023-07-25T04:01:50.022Z,20.10
2023-07-25T04:03:00.641Z,20.12
2023-07-25T04:03:50.117Z,20.10
2023-07-25T04:04:50.056Z,20.15
2023-07-25T04:05:49.926Z,20.16
2023-07-25T04:06:49.921Z,20.16
2023-07-25T04:07:49.921Z,20.16
2023-07-25T04:08:49.904Z,20.08
2023-07-25T04:09:49.921Z,20.15
2023-07-25T04:10:49.902Z,20.17
2023-07-25T04:11:49.886Z,20.08
2023-07-25T04:12:49.877Z,20.12
2023-07-25T04:13:49.874Z,20.15
2023-07-25T04:14:49.865Z,20.13
2023-07-25T04:15:49.870Z,20.05
2023-07-25T04:16:49.854Z,20.00
2023-07-25T04:17:49.873Z,20.04
2023-07-25T04:18:49.848Z,20.10
2023-07-25T04:19:49.835Z,20.08
2023-07-25T04:20:49.830Z,20.08
2023-07-25T04:21:49.818Z,20.02
2023-07-25T04:22:49.815Z,20.05
2023-07-25T04:23:49.808Z,20.02
2023-07-25T04:24:49.822Z,20.12
2023-07-25T04:25:49.816Z,20.08
2023-07-25T04:26:49.790Z,20.01
2023-07-25T04:27:49.782Z,20.12
2023-07-25T04:28:49.771Z,20.13
2023-07-25T04:29:49.770Z,20.19
2023-07-25T04:30:49.761Z,20.20
2023-07-25T04:31:49.757Z,20.13
2023-07-25T04:32:49.747Z,20.19
2023-07-25T04:33:49.746Z,20.19
2023-07-25T04:34:49.788Z,20.19
2023-07-25T04:35:49.741Z,20.19
2023-07-25T04:36:49.723Z,20.16
2023-07-25T04:37:49.718Z,20.17
2023-07-25T04:38:49.708Z,20.22
2023-07-25T04:39:49.703Z,20.17
2023-07-25T04:40:49.701Z,20.26
2023-07-25T04:41:49.929Z,20.26
2023-07-25T04:42:49.685Z,20.31
2023-07-25T04:43:49.678Z,20.34
2023-07-25T04:44:49.671Z,20.23
2023-07-25T04:45:54.200Z,20.22
2023-07-25T04:46:49.663Z,20.22
2023-07-25T04:47:49.677Z,20.26
2023-07-25T04:49:49.638Z,20.37
2023-07-25T04:50:49.638Z,20.34
2023-07-25T04:51:49.628Z,20.26
2023-07-25T04:52:49.622Z,20.30
2023-07-25T04:53:49.615Z,20.30
2023-07-25T04:54:49.609Z,20.30
2023-07-25T04:55:49.599Z,20.37
2023-07-25T04:56:49.607Z,20.40
2023-07-25T04:57:49.630Z,20.37
2023-07-25T04:58:49.584Z,20.46
2023-07-25T04:59:49.572Z,20.50
2023-07-25T05:00:49.590Z,20.42
2023-07-25T05:01:49.637Z,20.37
2023-07-25T05:02:49.678Z,20.38
2023-07-25T05:03:49.593Z,20.41
2023-07-25T05:04:49.542Z,20.41
2023-07-25T05:05:49.534Z,20.48
2023-07-25T05:06:49.541Z,20.50
2023-07-25T05:07:49.529Z,20.48
2023-07-25T05:08:49.514Z,20.48
2023-07-25T05:09:49.508Z,20.53
2023-07-25T05:10:49.502Z,20.63
2023-07-25T05:11:49.504Z,20.72
2023-07-25T05:12:49.513Z,20.72
2023-07-25T05:13:49.506Z,20.71
2023-07-25T05:14:49.485Z,20.75
2023-07-25T05:15:49.503Z,20.79
2023-07-25T05:16:49.467Z,20.91
2023-07-25T05:17:49.490Z,20.91
2023-07-25T05:18:49.451Z,20.94
2023-07-25T05:19:50.979Z,21.00
2023-07-25T05:20:49.440Z,20.96
2023-07-25T05:21:49.434Z,20.98
2023-07-25T05:22:49.448Z,21.01
2023-07-25T05:23:49.423Z,21.00
2023-07-25T05:24:49.427Z,21.06
2023-07-25T05:25:49.418Z,21.12
2023-07-25T05:26:49.401Z,21.31
2023-07-25T05:27:49.393Z,21.71
2023-07-25T05:28:49.391Z,21.91
2023-07-25T05:29:49.426Z,22.24
2023-07-25T05:30:49.380Z,22.20
2023-07-25T05:31:49.427Z,22.14
2023-07-25T05:32:49.401Z,22.15
2023-07-25T05:33:49.358Z,22.05
2023-07-25T05:34:49.356Z,22.24
2023-07-25T05:35:49.347Z,22.38
2023-07-25T05:36:49.420Z,22.41
2023-07-25T05:37:49.361Z,22.45
2023-07-25T05:38:49.334Z,22.45
2023-07-25T05:39:49.324Z,22.59
2023-07-25T05:40:51.398Z,22.67
2023-07-25T05:41:49.311Z,22.82
2023-07-25T05:42:49.327Z,22.86
2023-07-25T05:43:49.304Z,22.93
2023-07-25T05:44:49.294Z,22.91
2023-07-25T05:45:49.351Z,22.93
2023-07-25T05:46:49.283Z,22.84
2023-07-25T05:47:49.324Z,22.76
2023-07-25T05:48:49.277Z,22.72
2023-07-25T05:49:49.283Z,22.67
2023-07-25T05:50:49.277Z,22.66
2023-07-25T05:51:49.255Z,22.59
2023-07-25T05:52:49.252Z,22.45
2023-07-25T05:53:49.246Z,22.41
2023-07-25T05:54:49.251Z,22.30
2023-07-25T05:55:49.236Z,22.20
2023-07-25T05:56:49.228Z,22.15
2023-07-25T05:57:49.224Z,22.08
2023-07-25T05:58:49.234Z,21.98
2023-07-25T05:59:49.215Z,21.91
2023-07-25T06:00:49.261Z,21.93
2023-07-25T06:01:49.226Z,21.86
2023-07-25T06:02:49.202Z,21.79
2023-07-25T06:03:49.253Z,21.77
2023-07-25T06:04:49.190Z,21.59
2023-07-25T06:05:49.188Z,21.66
2023-07-25T06:06:49.176Z,21.64
2023-07-25T06:07:49.173Z,21.61
2023-07-25T06:08:49.162Z,21.55
2023-07-25T06:09:49.159Z,21.55
2023-07-25T06:10:49.155Z,21.51
2023-07-25T06:11:49.151Z,21.49
2023-07-25T06:12:49.153Z,21.48
2023-07-25T06:13:49.168Z,21.46
2023-07-25T06:14:49.131Z,21.40
2023-07-25T06:15:49.225Z,21.43
2023-07-25T06:16:49.215Z,21.40
2023-07-25T06:17:49.173Z,21.31
2023-07-25T06:18:49.111Z,21.27
2023-07-25T06:19:49.442Z,21.18
2023-07-25T06:20:49.104Z,21.21
2023-07-25T06:21:49.094Z,21.21
2023-07-25T06:22:49.087Z,21.11
2023-07-25T06:23:49.081Z,21.22
2023-07-25T06:24:49.110Z,21.22
2023-07-25T06:25:49.067Z,21.22
2023-07-25T06:26:49.062Z,21.27
2023-07-25T06:27:49.061Z,21.24
2023-07-25T06:28:49.054Z,21.16
2023-07-25T06:29:49.047Z,21.16
2023-07-25T06:30:49.065Z,21.11
2023-07-25T06:31:49.035Z,21.06
2023-07-25T06:32:50.346Z,21.15
2023-07-25T06:33:49.043Z,21.12
2023-07-25T06:34:49.017Z,21.18
2023-07-25T06:35:49.013Z,21.18
2023-07-25T06:36:49.022Z,21.37
2023-07-25T06:37:49.011Z,21.45
2023-07-25T06:38:49.028Z,21.56
2023-07-25T06:39:48.994Z,21.64
2023-07-25T06:40:48.984Z,21.83
2023-07-25T06:41:48.982Z,21.99
2023-07-25T06:42:48.981Z,21.91
2023-07-25T06:43:48.967Z,22.08
2023-07-25T06:44:48.960Z,22.23
2023-07-25T06:45:48.955Z,22.21
2023-07-25T06:46:48.971Z,22.30
2023-07-25T06:47:49.008Z,22.41
2023-07-25T06:48:48.936Z,22.42
2023-07-25T06:49:48.950Z,22.60
2023-07-25T06:50:48.928Z,22.69
2023-07-25T06:51:49.019Z,22.88
2023-07-25T06:52:48.921Z,22.91
2023-07-25T06:53:48.915Z,22.96
2023-07-25T06:54:48.903Z,23.06
2023-07-25T06:55:48.902Z,23.21
2023-07-25T06:56:48.903Z,23.35
2023-07-25T06:57:48.893Z,23.37
2023-07-25T06:58:48.891Z,23.50
2023-07-25T06:59:48.883Z,23.45
2023-07-25T07:00:48.928Z,23.42
2023-07-25T07:01:48.874Z,23.41
2023-07-25T07:02:48.932Z,23.38
2023-07-25T07:03:48.863Z,23.44
2023-07-25T07:04:48.858Z,23.31
2023-07-25T07:05:48.883Z,23.37
2023-07-25T07:06:48.853Z,23.15
2023-07-25T07:07:48.848Z,23.22
2023-07-25T07:08:48.843Z,23.31
2023-07-25T07:09:48.853Z,23.34
2023-07-25T07:10:48.838Z,23.42
2023-07-25T07:11:48.829Z,23.47
2023-07-25T07:12:48.906Z,23.57
2023-07-25T07:13:48.819Z,23.62
2023-07-25T07:14:48.816Z,23.60
2023-07-25T07:15:48.830Z,23.59
2023-07-25T07:16:48.919Z,23.60
2023-07-25T07:17:48.879Z,23.75
2023-07-25T07:18:48.798Z,23.82
2023-07-25T07:19:48.798Z,23.93
2023-07-25T07:20:48.793Z,24.00
2023-07-25T07:21:48.804Z,24.09
2023-07-25T07:22:48.790Z,24.15
2023-07-25T07:23:49.902Z,24.15
2023-07-25T07:24:48.839Z,24.18
2023-07-25T07:25:48.769Z,24.24
2023-07-25T07:26:48.765Z,24.34
2023-07-25T07:27:48.762Z,24.11
2023-07-25T07:28:48.761Z,24.16
2023-07-25T07:29:48.764Z,24.14
2023-07-25T07:30:48.760Z,24.21
2023-07-25T07:31:48.744Z,24.19
2023-07-25T07:32:48.755Z,24.26
2023-07-25T07:33:48.741Z,24.27
2023-07-25T07:34:48.737Z,24.30
2023-07-25T07:35:48.738Z,24.11
2023-07-25T07:36:48.724Z,23.99
2023-07-25T07:37:48.745Z,23.90
2023-07-25T07:38:48.718Z,24.04
2023-07-25T07:39:48.717Z,24.05
2023-07-25T07:40:48.711Z,24.19
2023-07-25T07:41:48.722Z,24.34
2023-07-25T07:42:48.711Z,24.34
2023-07-25T07:43:48.697Z,24.26
2023-07-25T07:44:48.696Z,24.31
2023-07-25T07:45:48.695Z,24.39
2023-07-25T07:46:48.705Z,24.23
2023-07-25T07:47:48.719Z,24.12
2023-07-25T07:48:48.679Z,24.02
2023-07-25T07:49:48.677Z,24.11
2023-07-25T07:50:48.674Z,24.09
2023-07-25T07:52:01.291Z,23.87
2023-07-25T07:52:48.669Z,23.87
2023-07-25T07:53:48.683Z,23.84
2023-07-25T07:54:48.656Z,23.39
2023-07-25T07:55:48.654Z,23.34
2023-07-25T07:56:48.650Z,23.32
2023-07-25T07:57:48.651Z,23.23
2023-07-25T07:58:48.650Z,23.35
2023-07-25T07:59:48.637Z,23.32
2023-07-25T08:00:48.633Z,23.34
2023-07-25T08:01:48.661Z,23.32
2023-07-25T08:02:48.647Z,23.31
2023-07-25T08:03:48.631Z,23.18
2023-07-25T08:04:48.645Z,23.15
2023-07-25T08:05:48.614Z,23.19
2023-07-25T08:06:48.610Z,23.26
2023-07-25T08:07:48.640Z,23.49
2023-07-25T08:08:48.615Z,23.29
2023-07-25T08:09:48.621Z,23.37
2023-07-25T08:10:48.588Z,23.35
2023-07-25T08:11:48.587Z,23.67
2023-07-25T08:12:48.580Z,23.74
2023-07-25T08:13:48.594Z,23.78
2023-07-25T08:14:48.579Z,23.99
2023-07-25T08:15:48.574Z,24.04
2023-07-25T08:16:48.609Z,24.05
2023-07-25T08:17:48.619Z,24.16
2023-07-25T08:18:48.567Z,24.08
2023-07-25T08:19:48.554Z,24.05
2023-07-25T08:20:48.548Z,24.04
2023-07-25T08:21:48.544Z,23.86
2023-07-25T08:22:48.549Z,23.89
2023-07-25T08:23:48.542Z,24.00
2023-07-25T08:24:48.588Z,24.16
2023-07-25T08:25:48.562Z,24.21
2023-07-25T08:26:48.525Z,24.29
2023-07-25T08:27:48.523Z,24.34
2023-07-25T08:28:48.514Z,24.29
2023-07-25T08:29:48.512Z,24.30
2023-07-25T08:30:48.515Z,24.33
2023-07-25T08:31:48.556Z,24.46
2023-07-25T08:32:48.537Z,24.45
2023-07-25T08:33:48.497Z,24.68
2023-07-25T08:34:48.491Z,24.74
2023-07-25T08:35:48.551Z,24.44
2023-07-25T08:36:48.484Z,24.70
2023-07-25T08:37:48.481Z,24.66
2023-07-25T08:38:48.477Z,24.64
2023-07-25T08:39:48.476Z,24.60
2023-07-25T08:40:48.499Z,24.51
2023-07-25T08:41:48.496Z,24.55
2023-07-25T08:42:48.472Z,24.41
2023-07-25T08:43:48.460Z,24.39
2023-07-25T08:44:48.454Z,24.68
2023-07-25T08:45:48.498Z,24.68
2023-07-25T08:46:48.445Z,24.94
2023-07-25T08:47:48.467Z,25.12
2023-07-25T08:48:48.648Z,25.31
2023-07-25T08:49:48.444Z,25.38
2023-07-25T08:50:48.453Z,25.44
2023-07-25T08:51:48.433Z,25.63
2023-07-25T08:52:48.440Z,25.67
2023-07-25T08:53:48.450Z,25.75
2023-07-25T08:54:48.418Z,25.97
2023-07-25T08:55:48.428Z,26.06
2023-07-25T08:56:48.419Z,26.16
2023-07-25T08:57:48.441Z,26.47
2023-07-25T08:58:48.413Z,26.41
2023-07-25T08:59:48.414Z,26.51
2023-07-25T09:00:48.414Z,26.50
2023-07-25T09:01:48.431Z,26.54
2023-07-25T09:02:48.715Z,26.29
2023-07-25T09:03:48.453Z,26.16
2023-07-25T09:04:48.439Z,26.12
2023-07-25T09:05:48.391Z,26.03
2023-07-25T09:06:48.394Z,26.04
2023-07-25T09:07:48.389Z,26.06
2023-07-25T09:08:48.400Z,25.78
2023-07-25T09:09:48.382Z,25.67
2023-07-25T09:10:48.378Z,25.74
2023-07-25T09:11:48.377Z,25.74
2023-07-25T09:12:48.382Z,25.71
2023-07-25T09:13:48.394Z,25.85
2023-07-25T09:14:48.369Z,26.00
2023-07-25T09:15:48.375Z,25.97
2023-07-25T09:16:48.375Z,26.00
2023-07-25T09:17:48.409Z,25.93
2023-07-25T09:18:48.380Z,25.98
2023-07-25T09:19:48.365Z,25.94
2023-07-25T09:20:48.358Z,25.45
2023-07-25T09:21:48.362Z,25.16
2023-07-25T09:22:48.352Z,25.16
2023-07-25T09:23:48.347Z,25.07
2023-07-25T09:24:48.395Z,25.22
2023-07-25T09:25:48.344Z,25.29
2023-07-25T09:26:48.339Z,25.34
2023-07-25T09:27:48.341Z,25.26
2023-07-25T09:28:48.334Z,25.30
2023-07-25T09:29:48.356Z,25.42
2023-07-25T09:30:48.333Z,25.31
2023-07-25T09:31:48.365Z,25.30
2023-07-25T09:32:48.515Z,25.29
2023-07-25T09:33:48.364Z,25.23
2023-07-25T09:34:48.325Z,25.27
2023-07-25T09:35:48.315Z,25.30
2023-07-25T09:36:48.321Z,25.08
2023-07-25T09:37:48.313Z,24.80
2023-07-25T09:38:48.308Z,24.60
2023-07-25T09:39:49.487Z,24.60
2023-07-25T09:40:48.299Z,24.42
2023-07-25T09:41:48.298Z,24.39
2023-07-25T09:42:48.298Z,24.42
2023-07-25T09:43:48.294Z,24.41
2023-07-25T09:44:48.305Z,24.44
2023-07-25T09:45:48.326Z,24.45
2023-07-25T09:46:48.283Z,24.46
2023-07-25T09:47:48.349Z,24.37
2023-07-25T09:48:48.293Z,24.23
2023-07-25T09:49:48.274Z,24.06
2023-07-25T09:50:48.282Z,23.89
2023-07-25T09:51:48.272Z,23.78
2023-07-25T09:52:48.274Z,23.60
2023-07-25T09:53:48.276Z,23.45
2023-07-25T09:54:48.268Z,23.44
2023-07-25T09:55:48.274Z,23.35
2023-07-25T09:56:48.252Z,23.19
2023-07-25T09:57:48.250Z,23.11
2023-07-25T09:59:05.780Z,22.97
2023-07-25T09:59:48.240Z,22.88
2023-07-25T10:00:48.231Z,22.64
2023-07-25T10:01:48.309Z,22.59
2023-07-25T10:02:48.283Z,22.48
2023-07-25T10:03:48.366Z,22.44
2023-07-25T10:04:48.325Z,22.24
2023-07-25T10:05:48.218Z,22.20
2023-07-25T10:06:48.212Z,22.05
2023-07-25T10:07:48.206Z,21.94
2023-07-25T10:08:48.203Z,21.91
2023-07-25T10:09:48.200Z,21.70
2023-07-25T10:10:48.209Z,21.75
2023-07-25T10:11:48.191Z,21.63
2023-07-25T10:12:48.185Z,21.74
2023-07-25T10:13:48.181Z,21.83
2023-07-25T10:14:48.181Z,21.85
2023-07-25T10:15:48.188Z,21.91
2023-07-25T10:16:48.165Z,21.71
2023-07-25T10:17:48.264Z,21.64
2023-07-25T10:18:48.154Z,21.77
2023-07-25T10:19:48.154Z,21.77
2023-07-25T10:20:48.149Z,21.83
2023-07-25T10:21:48.144Z,21.89
2023-07-25T10:22:48.160Z,21.93
2023-07-25T10:23:48.133Z,21.85
2023-07-25T10:24:48.188Z,21.89
2023-07-25T10:25:48.124Z,21.93
2023-07-25T10:26:48.119Z,21.94
2023-07-25T10:27:48.112Z,22.04
2023-07-25T10:28:48.112Z,21.89
2023-07-25T10:29:48.100Z,21.99
2023-07-25T10:30:48.102Z,21.64
2023-07-25T10:31:48.127Z,21.61
2023-07-25T10:32:48.144Z,21.59
2023-07-25T10:33:48.104Z,21.51
2023-07-25T10:34:48.080Z,21.46
2023-07-25T10:35:48.075Z,21.51
2023-07-25T10:36:48.078Z,21.43
2023-07-25T10:37:48.064Z,21.43
2023-07-25T10:38:48.058Z,21.53
2023-07-25T10:39:48.059Z,21.58
2023-07-25T10:40:48.052Z,21.55
2023-07-25T10:41:48.044Z,21.58
2023-07-25T10:43:00.052Z,21.59
2023-07-25T10:43:48.036Z,21.52
2023-07-25T10:44:48.037Z,21.66
2023-07-25T10:45:48.032Z,21.66
2023-07-25T10:46:48.084Z,21.56
2023-07-25T10:47:48.065Z,21.67
2023-07-25T10:48:48.021Z,21.73
2023-07-25T10:49:48.025Z,21.73
2023-07-25T10:50:47.998Z,21.93
2023-07-25T10:51:48.004Z,21.89
2023-07-25T10:52:47.994Z,21.99
2023-07-25T10:53:47.982Z,21.91
2023-07-25T10:54:47.977Z,22.04
2023-07-25T10:55:47.970Z,22.14
2023-07-25T10:56:47.967Z,22.27
2023-07-25T10:57:47.962Z,22.51
2023-07-25T10:58:47.959Z,22.67
2023-07-25T10:59:47.950Z,22.74
2023-07-25T11:00:47.994Z,22.69
2023-07-25T11:01:48.105Z,22.82
2023-07-25T11:02:47.979Z,22.96
2023-07-25T11:03:48.015Z,23.07
2023-07-25T11:04:47.926Z,23.16
2023-07-25T11:05:47.945Z,23.23
2023-07-25T11:06:47.917Z,23.38
2023-07-25T11:07:48.015Z,23.50
2023-07-25T11:08:47.913Z,23.56
2023-07-25T11:09:47.903Z,23.50
2023-07-25T11:10:47.900Z,23.64
2023-07-25T11:11:47.913Z,23.75
2023-07-25T11:13:47.892Z,24.15
2023-07-25T11:14:47.881Z,24.30
2023-07-25T11:15:48.072Z,24.30
2023-07-25T11:16:47.907Z,24.31
2023-07-25T11:17:47.866Z,24.45
2023-07-25T11:18:47.890Z,24.41
2023-07-25T11:19:47.860Z,24.45
2023-07-25T11:20:47.856Z,24.36
2023-07-25T11:21:47.892Z,24.31
2023-07-25T11:22:47.848Z,24.15
2023-07-25T11:23:47.853Z,24.11
2023-07-25T11:24:47.907Z,24.08
2023-07-25T11:25:47.859Z,24.05
2023-07-25T11:26:47.831Z,24.00
2023-07-25T11:27:47.840Z,23.82
2023-07-25T11:28:47.822Z,24.04
2023-07-25T11:29:47.830Z,24.16
2023-07-25T11:30:47.861Z,24.14
2023-07-25T11:31:47.822Z,24.36
2023-07-25T11:32:47.840Z,24.48
2023-07-25T11:33:47.811Z,24.51
2023-07-25T11:34:47.800Z,24.71
2023-07-25T11:35:47.798Z,24.37
2023-07-25T11:36:47.792Z,24.39
2023-07-25T11:37:47.816Z,24.34
2023-07-25T11:38:47.787Z,24.31
2023-07-25T11:39:47.786Z,24.34
2023-07-25T11:40:47.780Z,24.36
2023-07-25T11:41:47.781Z,24.36
2023-07-25T11:42:47.781Z,24.39
2023-07-25T11:43:47.775Z,24.45
2023-07-25T11:44:47.767Z,24.68
2023-07-25T11:45:47.775Z,24.67
2023-07-25T11:46:47.828Z,24.66
2023-07-25T11:47:47.786Z,24.59
2023-07-25T11:48:47.788Z,24.84
2023-07-25T11:49:58.635Z,25.02
2023-07-25T11:50:47.754Z,25.20
2023-07-25T11:51:47.749Z,25.38
2023-07-25T11:52:47.742Z,25.60
2023-07-25T11:53:47.763Z,25.69
2023-07-25T11:54:47.740Z,25.60
2023-07-25T11:55:47.734Z,25.35
2023-07-25T11:56:47.733Z,25.23
2023-07-25T11:57:47.732Z,25.04
2023-07-25T11:58:47.721Z,25.16
2023-07-25T11:59:47.721Z,25.22
2023-07-25T12:00:47.719Z,25.51
2023-07-25T12:01:47.743Z,25.69
2023-07-25T12:02:47.742Z,25.72
2023-07-25T12:03:47.753Z,25.75
2023-07-25T12:04:47.704Z,25.75
2023-07-25T12:05:47.712Z,25.69
2023-07-25T12:06:47.708Z,25.42
2023-07-25T12:07:47.704Z,25.31
2023-07-25T12:08:47.704Z,25.31
2023-07-25T12:09:47.716Z,25.30
2023-07-25T12:10:47.692Z,25.30
2023-07-25T12:11:47.685Z,25.30
2023-07-25T12:12:47.686Z,25.53
2023-07-25T12:13:47.683Z,25.64
2023-07-25T12:14:47.682Z,25.66
2023-07-25T12:15:47.740Z,25.69
2023-07-25T12:16:47.686Z,25.79
2023-07-25T12:17:47.761Z,25.71
2023-07-25T12:18:47.669Z,25.60
2023-07-25T12:19:47.668Z,25.59
2023-07-25T12:20:57.120Z,25.72
2023-07-25T12:21:47.662Z,25.90
2023-07-25T12:22:47.676Z,26.00
2023-07-25T12:23:47.661Z,26.03
2023-07-25T12:24:47.677Z,26.27
2023-07-25T12:25:47.673Z,26.47
2023-07-25T12:26:47.668Z,26.60
2023-07-25T12:27:47.653Z,26.39
2023-07-25T12:28:47.647Z,26.31
2023-07-25T12:29:47.648Z,26.27
2023-07-25T12:30:47.643Z,26.27
2023-07-25T12:31:47.654Z,26.28
2023-07-25T12:32:47.730Z,26.21
2023-07-25T12:33:47.651Z,25.69
2023-07-25T12:34:47.632Z,25.76
2023-07-25T12:35:47.628Z,25.60
2023-07-25T12:36:47.628Z,25.60
2023-07-25T12:37:47.624Z,25.48
2023-07-25T12:38:48.178Z,25.34
2023-07-25T12:39:47.617Z,25.14
2023-07-25T12:40:47.617Z,24.90
2023-07-25T12:41:47.660Z,24.60
2023-07-25T12:42:47.617Z,24.39
2023-07-25T12:43:47.616Z,24.29
2023-07-25T12:44:47.613Z,24.19
2023-07-25T12:45:47.609Z,24.19
2023-07-25T12:46:47.645Z,24.06
2023-07-25T12:47:47.613Z,24.06
2023-07-25T12:48:47.590Z,24.08
2023-07-25T12:49:47.589Z,23.90
2023-07-25T12:50:47.585Z,23.72
2023-07-25T12:51:47.589Z,23.56
2023-07-25T12:52:47.579Z,22.97
2023-07-25T12:53:47.587Z,22.44
2023-07-25T12:54:47.587Z,22.15
2023-07-25T12:55:47.569Z,21.93
2023-07-25T12:56:47.566Z,21.36
2023-07-25T12:57:47.780Z,21.00